createdAt,value
2023-03-06T00:05:15.919Z,7.6
2023-03-06T00:10:51.165Z,7.5
2023-03-06T00:16:31.827Z,7.5
2023-03-06T00:22:07.415Z,7.4
2023-03-06T00:27:42.313Z,7.3
2023-03-06T00:33:25.544Z,7.3
2023-03-06T00:39:09.107Z,7.2
2023-03-06T00:44:52.207Z,7.2
2023-03-06T00:50:36.306Z,7.2
2023-03-06T00:56:12.414Z,7.1
2023-03-06T01:01:54.995Z,7.1
2023-03-06T01:07:30.618Z,7.1
2023-03-06T01:13:11.278Z,7.1
2023-03-06T01:18:47.954Z,7.1
2023-03-06T01:24:53.666Z,7
2023-03-06T01:30:26.254Z,7
2023-03-06T01:36:07.950Z,7
2023-03-06T01:42:03.420Z,6.9
2023-03-06T01:47:46.266Z,6.9
2023-03-06T01:53:29.317Z,6.9
2023-03-06T01:59:16.020Z,6.9
2023-03-06T02:04:51.969Z,6.8
2023-03-06T02:13:03.838Z,6.8
2023-03-06T02:18:38.686Z,6.8
2023-03-06T02:24:45.934Z,6.9
2023-03-06T02:30:19.918Z,6.9
2023-03-06T02:35:59.312Z,7.1
2023-03-06T02:41:48.662Z,7.2
2023-03-06T02:47:34.290Z,7.3
2023-03-06T02:53:12.720Z,7.4
2023-03-06T02:58:56.345Z,7.5
2023-03-06T03:05:16.142Z,7.6
2023-03-06T03:10:51.105Z,7.6
2023-03-06T03:17:32.619Z,7.7
2023-03-06T03:24:23.748Z,7.7
2023-03-06T03:29:58.159Z,7.8
2023-03-06T03:35:58.682Z,7.9
2023-03-06T03:41:34.197Z,7.9
2023-03-06T03:47:26.294Z,8
2023-03-06T03:53:14.354Z,8
2023-03-06T03:58:49.920Z,8.1
2023-03-06T04:04:27.981Z,8.1
2023-03-06T04:10:05.309Z,8.2
2023-03-06T04:15:43.133Z,8.2
2023-03-06T04:21:18.305Z,8.3
2023-03-06T04:27:03.020Z,8.3
2023-03-06T04:33:22.675Z,8.4
2023-03-06T04:39:13.573Z,8.4
2023-03-06T04:45:36.540Z,8.4
2023-03-06T04:52:07.513Z,8.4
2023-03-06T04:58:30.815Z,8.4
2023-03-06T05:04:07.156Z,8.4
2023-03-06T05:10:12.145Z,8.5
2023-03-06T05:15:46.960Z,8.5
2023-03-06T05:21:25.536Z,8.5
2023-03-06T05:27:00.835Z,8.5
2023-03-06T05:32:36.038Z,8.5
2023-03-06T05:38:12.222Z,8.5
2023-03-06T05:43:48.595Z,8.5
2023-03-06T05:49:26.615Z,8.6
2023-03-06T05:55:10.786Z,8.6
2023-03-06T06:00:58.068Z,8.6
2023-03-06T06:07:20.177Z,8.6
2023-03-06T06:13:07.309Z,8.6
2023-03-06T06:18:50.918Z,8.6
2023-03-06T06:24:56.094Z,8.7
2023-03-06T06:30:29.920Z,8.7
2023-03-06T06:36:04.726Z,8.7
2023-03-06T06:41:57.195Z,8.7
2023-03-06T06:48:16.748Z,8.7
2023-03-06T06:53:55.542Z,8.8
2023-03-06T06:59:36.730Z,8.8
2023-03-06T07:05:20.965Z,8.8
2023-03-06T07:11:18.630Z,8.8
2023-03-06T07:16:57.107Z,8.8
2023-03-06T07:22:59.929Z,8.9
2023-03-06T07:28:43.066Z,8.9
2023-03-06T07:35:20.793Z,8.9
2023-03-06T07:40:57.059Z,8.9
2023-03-06T07:46:41.265Z,7.9
2023-03-06T07:52:38.356Z,7.6
2023-03-06T07:58:19.534Z,7.8
2023-03-06T08:03:56.039Z,7.8
2023-03-06T08:09:32.188Z,7.9
2023-03-06T08:15:29.566Z,8.2
2023-03-06T08:21:05.350Z,8.5
2023-03-06T08:26:40.585Z,8.6
2023-03-06T08:32:19.881Z,8.9
2023-03-06T08:37:57.079Z,8.7
2023-03-06T08:43:32.272Z,8.9
2023-03-06T08:49:11.360Z,9
2023-03-06T08:54:50.624Z,9.2
2023-03-06T09:00:50.908Z,9.9
2023-03-06T09:06:37.606Z,10.1
2023-03-06T09:12:13.923Z,9.7
2023-03-06T09:17:49.458Z,9.9
2023-03-06T09:23:47.934Z,11
2023-03-06T09:29:22.502Z,11.9
2023-03-06T09:34:58.018Z,12.2
2023-03-06T09:40:33.660Z,12
2023-03-06T09:46:10.539Z,12.2
2023-03-06T09:51:51.255Z,12.4
2023-03-06T09:57:26.081Z,11.9
2023-03-06T10:03:25.518Z,11.6
2023-03-06T10:09:07.405Z,11.6
2023-03-06T10:14:42.859Z,11.6
2023-03-06T10:20:23.352Z,11.7
2023-03-06T10:25:58.849Z,11.7
2023-03-06T10:31:34.547Z,11.8
2023-03-06T10:37:10.095Z,11.9
2023-03-06T10:42:45.476Z,12
2023-03-06T10:48:20.735Z,12.1
2023-03-06T10:53:56.593Z,12.2
2023-03-06T10:59:31.716Z,12.2
2023-03-06T11:05:07.452Z,12.3
2023-03-06T11:10:43.275Z,12.5
2023-03-06T11:16:21.518Z,12.9
2023-03-06T11:22:04.223Z,13
2023-03-06T11:27:39.740Z,13.2
2023-03-06T11:33:15.881Z,13.3
2023-03-06T11:38:53.399Z,13.5
2023-03-06T11:44:29.435Z,14.5
2023-03-06T11:50:04.749Z,13.8
2023-03-06T11:55:44.124Z,14.5
2023-03-06T12:01:20.358Z,14
2023-03-06T12:07:07.901Z,14.1
2023-03-06T12:12:43.995Z,14.6
2023-03-06T12:18:20.693Z,14.1
2023-03-06T12:24:00.891Z,14.6
2023-03-06T12:29:36.397Z,13.9
2023-03-06T12:35:16.851Z,13.9
2023-03-06T12:41:01.698Z,14.1
2023-03-06T12:47:05.845Z,14.6
2023-03-06T12:52:52.989Z,16.4
2023-03-06T12:58:32.509Z,16.8
2023-03-06T13:04:13.462Z,16.6
2023-03-06T13:09:57.427Z,18.1
2023-03-06T13:15:32.692Z,18.1
2023-03-06T13:21:10.633Z,18
2023-03-06T13:26:45.850Z,15.6
2023-03-06T13:32:21.854Z,17.4
2023-03-06T13:37:57.783Z,16.6
2023-03-06T13:43:33.535Z,18.2
2023-03-06T13:49:09.943Z,19.1
2023-03-06T13:54:50.896Z,21.8
2023-03-06T14:00:33.882Z,25.6
2023-03-06T14:06:22.288Z,25.8
2023-03-06T14:13:00.370Z,26.6
2023-03-06T14:18:36.455Z,25.5
2023-03-06T14:24:33.747Z,25.8
2023-03-06T14:30:07.117Z,27.7
2023-03-06T14:35:51.779Z,24.4
2023-03-06T14:41:31.275Z,27.1
2023-03-06T14:47:07.684Z,29.5
2023-03-06T14:52:45.112Z,32.1
2023-03-06T14:58:21.507Z,29.9
2023-03-06T15:04:33.235Z,26
2023-03-06T15:10:39.262Z,29.4
2023-03-06T15:16:24.189Z,27.3
2023-03-06T15:23:57.806Z,23.5
2023-03-06T15:29:31.252Z,20.4
2023-03-06T15:35:12.603Z,17.4
2023-03-06T15:40:49.626Z,17.8
2023-03-06T15:46:31.089Z,18
2023-03-06T15:52:06.174Z,19.7
2023-03-06T15:57:47.258Z,19.3
2023-03-06T16:03:23.255Z,17.5
2023-03-06T16:09:01.619Z,16.5
2023-03-06T16:14:39.745Z,15.4
2023-03-06T16:20:15.688Z,14.6
2023-03-06T16:26:01.074Z,13.8
2023-03-06T16:32:10.214Z,13.3
2023-03-06T16:38:11.434Z,13.2
2023-03-06T16:43:46.635Z,13
2023-03-06T16:49:29.773Z,12.6
2023-03-06T16:55:14.635Z,12.5
2023-03-06T17:00:58.091Z,12.2
2023-03-06T17:06:34.370Z,11.8
2023-03-06T17:12:10.555Z,11.4
2023-03-06T17:17:49.289Z,11.3
2023-03-06T17:23:25.651Z,11
2023-03-06T17:29:07.076Z,10.6
2023-03-06T17:35:12.008Z,10.3
2023-03-06T17:40:49.849Z,10
2023-03-06T17:46:31.169Z,9.8
2023-03-06T17:52:12.502Z,9.7
2023-03-06T17:58:05.634Z,9.5
2023-03-06T18:03:46.554Z,9.2
2023-03-06T18:09:57.662Z,9.2
2023-03-06T18:16:00.635Z,8.9
2023-03-06T18:21:39.029Z,8.8
2023-03-06T18:27:40.260Z,8.7
2023-03-06T18:33:15.794Z,8.6
2023-03-06T18:38:51.110Z,9.7
2023-03-06T18:44:30.125Z,10.2
2023-03-06T18:50:06.271Z,10.4
2023-03-06T18:55:51.348Z,10.4
2023-03-06T19:01:26.675Z,10.4
2023-03-06T19:07:11.540Z,10.4
2023-03-06T19:12:46.656Z,10.4
2023-03-06T19:18:29.858Z,10.4
2023-03-06T19:24:35.434Z,10.4
2023-03-06T19:30:08.071Z,10.3
2023-03-06T19:35:43.210Z,10.3
2023-03-06T19:41:19.258Z,10.3
2023-03-06T19:46:54.744Z,10.3
2023-03-06T19:52:30.492Z,10.2
2023-03-06T19:58:06.128Z,10.1
2023-03-06T20:03:41.486Z,10
2023-03-06T20:09:16.569Z,9.9
2023-03-06T20:14:53.502Z,9.9
2023-03-06T20:20:28.826Z,9.8
2023-03-06T20:26:07.026Z,9.7
2023-03-06T20:31:42.472Z,9.7
2023-03-06T20:37:19.268Z,9.6
2023-03-06T20:42:54.533Z,9.6
2023-03-06T20:48:46.369Z,9.7
2023-03-06T20:54:22.571Z,9.7
2023-03-06T20:59:59.158Z,9.6
2023-03-06T21:05:34.754Z,9.5
2023-03-06T21:11:10.209Z,9.4
2023-03-06T21:16:46.859Z,9.3
2023-03-06T21:22:22.370Z,9.3
2023-03-06T21:27:57.598Z,9.2
2023-03-06T21:33:41.690Z,9.1
2023-03-06T21:39:16.799Z,9.1
2023-03-06T21:44:52.707Z,9
2023-03-06T21:50:48.788Z,9
2023-03-06T21:56:37.637Z,9.1
2023-03-06T22:02:14.119Z,9.2
2023-03-06T22:07:49.135Z,9.2
2023-03-06T22:13:25.316Z,8.9
2023-03-06T22:19:01.718Z,8.8
2023-03-06T22:25:08.663Z,8.9
2023-03-06T22:30:41.743Z,8.9
2023-03-06T22:36:17.255Z,8.9
2023-03-06T22:41:52.294Z,8.9
2023-03-06T22:47:27.880Z,8.9
2023-03-06T22:53:04.155Z,9
2023-03-06T22:58:38.908Z,9.1
2023-03-06T23:04:14.306Z,9.1
2023-03-06T23:09:50.097Z,9.1
2023-03-06T23:15:25.055Z,9.2
2023-03-06T23:21:03.788Z,9.2
2023-03-06T23:26:39.415Z,9.2
2023-03-06T23:32:14.702Z,9.1
2023-03-06T23:37:55.474Z,9
2023-03-06T23:43:30.812Z,8.9
2023-03-06T23:49:06.099Z,8.7
2023-03-06T23:54:41.504Z,8.6
